メインページ
METAR-TAF:

METAR-TAF

空港 :

シルビオ・ペッティロッシ国際空港

アスンシオン, パラグアイ

緯度: 25-16S, 経度: 057-38W, 海抜: 101m

現時点の気象観測

当レポートは16分前の11:30(UTC)に作成
の風 2kt
気温 13°C
湿度 82%
気圧 1021 hPa
視程10km以上
1,500メートル以下は雲なし、積乱雲なし

METAR: SGAS 221130Z 18002KT CAVOK 13/10 Q1021

時間: 07:46 (11:46 UTC)

予報

当レポートは56分前の10:50(UTC)に作成
予報は22日の 12時(UTC)から 23日の 12時(UTC)まで有効
南/南西の風 5kt
視程10km以上
1,500メートル以下は雲なし、積乱雲なし
22日の 17時(UTC)から 22日の 20時(UTC)まで徐々に
視程10km以上
高度3000ftの雲は散在している
22日の 21時(UTC)から 23日の 00時(UTC)まで徐々に
変向風 3kt
視程10km以上
1,500メートル以下は雲なし、積乱雲なし
確率 30%
23日の 04時(UTC)から 23日の 06時(UTC)まで
視程: 7000m

TAF: SGAS 221050Z 2212/2312 20005KT CAVOK TX21/2219Z TN10/2309Z BECMG 2217/2220 9999 SCT030 BECMG 2221/2300 VRB03KT CAVOK PROB30 2304/2306 7000 NSC

4,000以上の空港の気象観測と天気予報(METAR報とTAF報)

利用可能な観測所は地図上に黄色い丸と赤い丸で示す。

丸の上にカーソルを重ねると観測所名を参照できる。

次にクリックすると気象観測と天気予報を参照できる。

マップの切り替え:黒色「×」印の緑ボタンをクリックして拡大、「-」印の緑ボタンをクリックして縮小、緑色の三角印をクリックして隣りの地図に切り替え


METAR-TAF: